Time;durP1;ratioP1;P1;durP2;ratioP2;P2;SDS_P1;SDS_P2;PMS_P1;PMS_P2;Temp;Humidity;BMP_temperature;BMP_pressure;BME280_temperature;BME280_humidity;BME280_pressure;Samples;Min_cycle;Max_cycle;Signal;HPM_P1;HPM_P2
2024/01/10 00:01:58;;;;;;;17.15;4.80;;;-8.10;99.90;;;;;;5068680;28;20117;-65
2024/01/10 00:04:24;;;;;;;14.68;4.80;;;-8.10;99.90;;;;;;5074002;28;20481;-65
2024/01/10 00:06:49;;;;;;;16.52;5.50;;;-8.20;99.90;;;;;;5072955;28;20040;-66
2024/01/10 00:09:15;;;;;;;14.43;5.35;;;-8.20;99.90;;;;;;5074681;28;20264;-65
2024/01/10 00:11:41;;;;;;;17.30;5.28;;;-8.30;99.90;;;;;;5075454;28;20089;-66
2024/01/10 00:14:06;;;;;;;16.48;5.60;;;-8.30;99.90;;;;;;5073036;28;20110;-65
2024/01/10 00:16:32;;;;;;;16.20;4.95;;;-8.40;99.90;;;;;;5077813;28;20065;-66
2024/01/10 00:18:58;;;;;;;13.38;5.28;;;-8.50;99.90;;;;;;5074572;28;20030;-65
2024/01/10 00:21:23;;;;;;;12.82;4.78;;;-8.60;99.90;;;;;;5076632;28;20048;-65
2024/01/10 00:23:49;;;;;;;17.48;5.68;;;-8.60;99.90;;;;;;5075889;28;20026;-66
2024/01/10 00:26:15;;;;;;;14.75;5.50;;;-8.60;99.90;;;;;;5074822;28;20033;-65
2024/01/10 00:28:41;;;;;;;20.88;6.40;;;-8.60;99.90;;;;;;5074300;28;20032;-65
2024/01/10 00:31:06;;;;;;;16.15;5.25;;;-8.60;99.90;;;;;;5076260;28;20029;-65
2024/01/10 00:33:32;;;;;;;15.10;5.88;;;-8.60;99.90;;;;;;5074065;28;20020;-65
2024/01/10 00:35:57;;;;;;;19.67;5.72;;;-8.60;99.90;;;;;;5075454;28;20387;-65
2024/01/10 00:38:23;;;;;;;15.55;5.10;;;-8.60;99.90;;;;;;5076866;28;20063;-65
2024/01/10 00:40:48;;;;;;;16.10;5.35;;;-8.60;99.90;;;;;;5074417;28;20020;-66
2024/01/10 00:43:14;;;;;;;12.68;5.07;;;-8.60;99.90;;;;;;5071304;28;20056;-65
2024/01/10 00:45:40;;;;;;;17.55;6.07;;;-8.70;99.90;;;;;;5072264;28;20383;-63
2024/01/10 00:48:06;;;;;;;19.05;5.57;;;-8.70;99.90;;;;;;5073009;28;20024;-64
2024/01/10 00:50:31;;;;;;;17.13;5.68;;;-8.70;99.90;;;;;;5086673;28;20366;-63
2024/01/10 00:52:57;;;;;;;13.90;5.18;;;-8.60;99.90;;;;;;5074186;28;20095;-63
2024/01/10 00:55:22;;;;;;;13.80;4.78;;;-8.60;99.90;;;;;;5072273;28;20430;-63
2024/01/10 00:57:48;;;;;;;17.58;5.30;;;-8.70;99.90;;;;;;5075266;28;20032;-64
2024/01/10 01:00:14;;;;;;;16.25;5.57;;;-8.80;99.90;;;;;;5072974;28;20009;-64
2024/01/10 01:02:39;;;;;;;15.30;5.35;;;-8.80;99.90;;;;;;5071718;28;20068;-64
2024/01/10 01:05:09;;;;;;;15.18;5.35;;;-8.90;99.90;;;;;;5072314;28;20514;-64
2024/01/10 01:07:35;;;;;;;14.30;4.70;;;-8.90;99.90;;;;;;5068556;28;20095;-64
2024/01/10 01:10:01;;;;;;;15.95;5.30;;;-8.90;99.90;;;;;;5071085;28;20250;-63
2024/01/10 01:12:27;;;;;;;12.65;4.72;;;-8.90;99.90;;;;;;5072318;28;20077;-63
2024/01/10 01:14:53;;;;;;;14.50;4.93;;;-8.90;99.90;;;;;;5076686;28;20430;-63
2024/01/10 01:17:18;;;;;;;15.50;5.35;;;-8.90;99.90;;;;;;5077767;28;20040;-63
2024/01/10 01:19:44;;;;;;;13.30;4.60;;;-8.90;99.90;;;;;;5078321;28;20043;-63
2024/01/10 01:22:10;;;;;;;16.70;5.30;;;-8.90;99.90;;;;;;5078647;28;20538;-64
2024/01/10 01:24:35;;;;;;;16.08;5.13;;;-8.90;99.90;;;;;;5074832;28;20028;-63
2024/01/10 01:27:02;;;;;;;21.10;5.35;;;-8.90;99.90;;;;;;5075792;28;20037;-63
2024/01/10 01:29:28;;;;;;;15.13;4.97;;;-8.80;99.90;;;;;;5077562;28;20075;-65
2024/01/10 01:31:54;;;;;;;14.27;4.82;;;-8.80;99.90;;;;;;5075696;28;20024;-63
2024/01/10 01:34:20;;;;;;;19.13;5.70;;;-8.90;99.90;;;;;;5077436;28;20047;-64
2024/01/10 01:36:45;;;;;;;17.90;4.65;;;-9.00;99.90;;;;;;5080231;28;20032;-64
2024/01/10 01:39:13;;;;;;;12.95;5.40;;;-9.10;99.90;;;;;;5079561;28;20479;-63
2024/01/10 01:41:39;;;;;;;15.65;5.35;;;-9.20;99.90;;;;;;5078728;28;20020;-64
2024/01/10 01:44:04;;;;;;;15.55;4.95;;;-9.30;99.90;;;;;;5077458;28;20031;-63
2024/01/10 01:46:31;;;;;;;12.30;4.78;;;-9.30;99.90;;;;;;5076695;28;20024;-64
2024/01/10 01:48:57;;;;;;;15.30;5.35;;;-9.30;99.90;;;;;;5076791;28;20024;-63
2024/01/10 01:51:23;;;;;;;13.65;4.72;;;-9.30;99.90;;;;;;5081330;28;20031;-63
2024/01/10 01:53:49;;;;;;;15.52;4.93;;;-9.30;99.90;;;;;;5081010;28;20017;-63
2024/01/10 01:56:16;;;;;;;17.33;4.63;;;-9.30;99.90;;;;;;5074988;28;20024;-64
2024/01/10 01:58:43;;;;;;;16.40;4.80;;;-9.20;99.90;;;;;;5078406;28;20017;-64
2024/01/10 02:01:11;;;;;;;16.17;5.05;;;-9.20;99.90;;;;;;5079166;28;20037;-64
2024/01/10 02:03:37;;;;;;;14.18;5.22;;;-9.20;99.90;;;;;;5070008;28;20486;-65
2024/01/10 02:06:03;;;;;;;17.08;4.80;;;-9.30;99.90;;;;;;5074664;28;20036;-65
2024/01/10 02:08:33;;;;;;;15.23;5.28;;;-9.40;99.90;;;;;;5073128;28;20095;-64
2024/01/10 02:11:00;;;;;;;16.58;4.82;;;-9.60;99.90;;;;;;5072350;28;20502;-65
2024/01/10 02:13:26;;;;;;;18.95;5.43;;;-9.60;99.90;;;;;;5073205;28;20032;-64
2024/01/10 02:15:52;;;;;;;14.48;5.30;;;-9.60;99.90;;;;;;5074779;28;20040;-65
2024/01/10 02:18:17;;;;;;;17.65;5.50;;;-9.70;99.90;;;;;;5077053;28;20028;-65
2024/01/10 02:20:46;;;;;;;16.42;5.50;;;-9.80;99.90;;;;;;5077516;28;20500;-65
2024/01/10 02:23:12;;;;;;;16.15;5.20;;;-9.90;99.90;;;;;;5077129;28;20040;-65
2024/01/10 02:25:39;;;;;;;17.20;5.25;;;-10.00;99.90;;;;;;5074467;28;20032;-64
2024/01/10 02:28:05;;;;;;;17.02;5.10;;;-10.10;99.90;;;;;;5075651;28;20037;-65
2024/01/10 02:30:31;;;;;;;17.60;5.30;;;-10.10;99.90;;;;;;5074030;28;20028;-64
2024/01/10 02:32:57;;;;;;;18.55;5.05;;;-10.10;99.90;;;;;;5068433;28;20021;-64
2024/01/10 02:35:22;;;;;;;14.07;5.13;;;-10.20;99.90;;;;;;5077709;28;20067;-65
2024/01/10 02:37:51;;;;;;;14.90;4.85;;;-10.20;99.90;;;;;;5076167;28;20043;-64
2024/01/10 02:40:17;;;;;;;14.73;5.18;;;-10.20;99.90;;;;;;5075832;28;20009;-65
2024/01/10 02:42:42;;;;;;;16.27;5.32;;;-10.20;99.90;;;;;;5076323;28;20085;-64
2024/01/10 02:45:08;;;;;;;15.50;5.35;;;-10.20;99.90;;;;;;5078148;28;20020;-65
2024/01/10 02:47:34;;;;;;;14.48;5.50;;;-10.30;99.90;;;;;;5077533;28;20017;-64
2024/01/10 02:50:00;;;;;;;16.60;5.65;;;-10.40;99.90;;;;;;5075810;28;20463;-65
2024/01/10 02:52:25;;;;;;;16.95;5.32;;;-10.50;99.90;;;;;;5077627;28;20020;-64
2024/01/10 02:54:51;;;;;;;13.70;5.00;;;-10.40;99.90;;;;;;5075359;28;20020;-65
2024/01/10 02:57:17;;;;;;;13.35;5.38;;;-10.50;99.90;;;;;;5078893;28;20017;-65
2024/01/10 02:59:42;;;;;;;14.93;5.45;;;-10.50;99.90;;;;;;5076595;28;20021;-64
2024/01/10 03:02:08;;;;;;;15.18;4.40;;;-10.50;99.90;;;;;;5075981;28;20183;-64
2024/01/10 03:04:34;;;;;;;15.90;6.60;;;-10.60;99.90;;;;;;5076580;28;20033;-64
2024/01/10 03:06:59;;;;;;;15.18;5.10;;;-10.50;99.90;;;;;;5078637;28;20029;-63
2024/01/10 03:09:25;;;;;;;16.15;5.28;;;-10.30;99.90;;;;;;5079797;28;20035;-63
2024/01/10 03:11:50;;;;;;;17.02;5.40;;;-10.20;99.90;;;;;;5076731;28;20016;-63
2024/01/10 03:14:16;;;;;;;20.38;6.05;;;-10.20;99.90;;;;;;5080741;28;20020;-64
2024/01/10 03:16:42;;;;;;;17.48;5.55;;;-10.30;99.90;;;;;;5081719;28;20051;-63
2024/01/10 03:19:07;;;;;;;23.42;6.75;;;-10.40;99.90;;;;;;5077829;28;20025;-63
2024/01/10 03:21:33;;;;;;;16.58;5.80;;;-10.50;99.90;;;;;;5071780;28;20438;-63
2024/01/10 03:24:00;;;;;;;15.27;5.65;;;-10.60;99.90;;;;;;5071573;28;20024;-63
2024/01/10 03:26:27;;;;;;;17.30;6.38;;;-10.60;99.90;;;;;;5073293;28;20107;-63
2024/01/10 03:28:53;;;;;;;23.90;6.28;;;-10.70;99.90;;;;;;5079151;28;20031;-63
2024/01/10 03:31:19;;;;;;;19.05;5.65;;;-10.70;99.90;;;;;;5064080;28;20461;-63
2024/01/10 03:33:44;;;;;;;19.17;6.15;;;-10.80;99.90;;;;;;5075909;28;20053;-63
2024/01/10 03:36:17;;;;;;;19.40;6.78;;;-10.80;99.90;;;;;;5073705;28;20028;-63
2024/01/10 03:38:44;;;;;;;23.52;7.80;;;-10.80;99.90;;;;;;5073237;28;20049;-63
2024/01/10 03:41:19;;;;;;;22.33;8.70;;;-10.80;99.90;;;;;;5079006;28;20047;-63
2024/01/10 03:43:46;;;;;;;21.65;8.98;;;-10.80;99.90;;;;;;5076134;28;20029;-63
2024/01/10 03:46:12;;;;;;;24.55;9.35;;;-10.80;99.90;;;;;;5079883;28;20084;-63
2024/01/10 03:48:40;;;;;;;20.77;7.93;;;-10.80;99.90;;;;;;5078566;28;20107;-63
2024/01/10 03:51:06;;;;;;;20.77;7.00;;;-10.90;99.90;;;;;;5073270;28;20035;-63
2024/01/10 03:53:31;;;;;;;22.27;7.80;;;-10.80;99.90;;;;;;5072093;28;20037;-63
2024/01/10 03:55:57;;;;;;;24.60;8.75;;;-10.60;99.90;;;;;;5077377;28;20013;-64
2024/01/10 03:58:23;;;;;;;19.00;6.78;;;-10.50;99.90;;;;;;5082229;28;20030;-63
2024/01/10 04:00:49;;;;;;;21.80;6.35;;;-10.60;99.90;;;;;;5075482;28;20012;-63
2024/01/10 04:03:15;;;;;;;14.73;6.00;;;-10.50;99.90;;;;;;5074460;28;20024;-63
2024/01/10 04:05:42;;;;;;;22.33;6.25;;;;;;;;;;5076815;28;20020;-63
2024/01/10 04:08:08;;;;;;;26.98;6.57;;;-10.50;99.90;;;;;;5077454;28;20435;-63
2024/01/10 04:10:33;;;;;;;16.75;5.22;;;-10.50;99.90;;;;;;5079841;28;20032;-63
2024/01/10 04:12:59;;;;;;;17.33;6.75;;;-10.60;99.90;;;;;;5078574;28;20036;-63
2024/01/10 04:15:24;;;;;;;18.70;5.97;;;-10.60;99.90;;;;;;5076498;28;20032;-64
2024/01/10 04:17:50;;;;;;;16.23;5.45;;;-10.70;99.90;;;;;;5082193;28;20028;-63
2024/01/10 04:20:16;;;;;;;17.77;6.05;;;-10.70;99.90;;;;;;5084610;28;20039;-63
2024/01/10 04:22:41;;;;;;;13.13;5.55;;;-10.70;99.90;;;;;;5076455;28;20529;-63
2024/01/10 04:25:08;;;;;;;19.23;6.50;;;-10.70;99.90;;;;;;5077682;28;20472;-64
2024/01/10 04:27:33;;;;;;;16.80;5.47;;;-10.60;99.90;;;;;;5077311;28;20024;-63
2024/01/10 04:29:59;;;;;;;16.08;5.68;;;-10.50;99.90;;;;;;5078428;28;20023;-63
2024/01/10 04:32:25;;;;;;;17.23;5.28;;;-10.50;99.90;;;;;;5076625;28;20100;-63
2024/01/10 04:34:50;;;;;;;21.05;6.43;;;-10.40;99.90;;;;;;5079990;28;20028;-63
2024/01/10 04:37:16;;;;;;;27.23;9.25;;;-10.50;99.90;;;;;;5077863;28;20374;-63
2024/01/10 04:39:45;;;;;;;25.98;9.15;;;-10.50;99.90;;;;;;5076674;28;20027;-63
2024/01/10 04:42:11;;;;;;;16.50;6.00;;;-10.50;99.90;;;;;;5079286;28;20017;-63
2024/01/10 04:44:37;;;;;;;19.50;7.22;;;-10.40;99.90;;;;;;5077942;28;20555;-63
2024/01/10 04:47:03;;;;;;;21.63;7.95;;;-10.40;99.90;;;;;;5076650;28;20032;-63
2024/01/10 04:49:28;;;;;;;21.20;9.30;;;-10.30;99.90;;;;;;5080454;28;20082;-63
2024/01/10 04:51:54;;;;;;;24.67;9.18;;;-10.40;99.90;;;;;;5080341;28;20025;-63
2024/01/10 04:54:20;;;;;;;21.30;8.07;;;-10.30;99.90;;;;;;5083565;28;20081;-64
2024/01/10 04:56:46;;;;;;;26.27;9.27;;;-10.30;99.90;;;;;;5079394;28;20467;-63
2024/01/10 04:59:11;;;;;;;25.90;8.75;;;-10.30;99.90;;;;;;5075135;28;20074;-63
2024/01/10 05:01:37;;;;;;;24.40;10.23;;;-10.30;99.90;;;;;;5073127;28;20047;-63
2024/01/10 05:04:03;;;;;;;20.90;8.68;;;-10.40;99.90;;;;;;5075965;28;20031;-63
2024/01/10 05:06:28;;;;;;;24.30;8.25;;;-10.40;99.90;;;;;;5076807;28;20086;-65
2024/01/10 05:08:57;;;;;;;25.15;8.70;;;-10.40;99.90;;;;;;5074529;28;20054;-65
2024/01/10 05:11:25;;;;;;;28.23;10.27;;;-10.40;99.90;;;;;;5077630;28;20552;-65
2024/01/10 05:13:51;;;;;;;27.15;9.65;;;-10.40;99.90;;;;;;5077300;28;20027;-62
2024/01/10 05:16:17;;;;;;;21.17;7.25;;;-10.30;99.90;;;;;;5081000;28;20798;-63
2024/01/10 05:18:43;;;;;;;21.20;7.70;;;-10.30;99.90;;;;;;5082428;28;20107;-65
2024/01/10 05:21:09;;;;;;;24.77;9.10;;;-10.30;99.90;;;;;;5082743;28;20088;-62
2024/01/10 05:23:35;;;;;;;27.80;9.95;;;-10.30;99.90;;;;;;5079897;28;20039;-64
2024/01/10 05:26:01;;;;;;;23.02;8.63;;;-10.10;99.90;;;;;;5075081;28;20025;-66
2024/01/10 05:28:26;;;;;;;32.25;9.90;;;-10.00;99.90;;;;;;5075215;28;20036;-65
2024/01/10 05:30:53;;;;;;;31.48;10.77;;;-10.00;99.90;;;;;;5076242;28;20052;-66
2024/01/10 05:33:19;;;;;;;23.30;9.32;;;-10.00;99.90;;;;;;5074363;28;20834;-65
2024/01/10 05:35:45;;;;;;;31.52;11.18;;;-10.00;99.90;;;;;;5072080;28;20035;-66
2024/01/10 05:38:11;;;;;;;35.78;13.05;;;-10.00;99.90;;;;;;5072628;28;20024;-66
2024/01/10 05:40:37;;;;;;;40.28;14.98;;;-10.00;99.90;;;;;;5076005;28;20104;-66
2024/01/10 05:43:02;;;;;;;33.13;11.65;;;-9.80;99.90;;;;;;5077598;28;20081;-65
2024/01/10 05:45:28;;;;;;;27.50;10.07;;;-9.70;99.90;;;;;;5078047;28;20036;-66
2024/01/10 05:47:54;;;;;;;25.15;8.85;;;-9.70;99.90;;;;;;5079343;28;20035;-66
2024/01/10 05:50:20;;;;;;;24.23;8.95;;;-9.70;99.90;;;;;;5078617;28;20024;-66
2024/01/10 05:52:46;;;;;;;33.67;12.80;;;-9.70;99.90;;;;;;5073513;28;20085;-66
2024/01/10 05:55:12;;;;;;;26.70;10.32;;;-9.70;99.90;;;;;;5085781;28;20024;-65
2024/01/10 05:57:38;;;;;;;28.73;9.02;;;-9.70;99.90;;;;;;5081987;28;20030;-65
2024/01/10 06:00:09;;;;;;;22.83;7.20;;;-9.70;99.90;;;;;;5083156;28;20463;-67
2024/01/10 06:02:40;;;;;;;17.83;7.28;;;-9.70;99.90;;;;;;5072182;28;20491;-66
2024/01/10 06:05:10;;;;;;;32.72;11.23;;;-9.70;99.90;;;;;;5079934;28;20351;-66
2024/01/10 06:07:41;;;;;;;33.80;12.40;;;-9.70;99.90;;;;;;5078245;28;20081;-66
2024/01/10 06:10:07;;;;;;;35.75;10.10;;;-9.80;99.90;;;;;;5076999;28;20048;-66
2024/01/10 06:12:32;;;;;;;22.00;8.15;;;-9.60;99.90;;;;;;5077433;28;20031;-67
2024/01/10 06:14:58;;;;;;;21.70;8.02;;;-9.60;99.90;;;;;;5075887;28;20028;-65
2024/01/10 06:17:24;;;;;;;19.42;6.53;;;-9.60;99.90;;;;;;5076006;28;20016;-66
2024/01/10 06:19:50;;;;;;;15.38;6.03;;;-9.60;99.90;;;;;;5083739;28;20080;-66
2024/01/10 06:22:16;;;;;;;17.30;5.78;;;-9.60;99.90;;;;;;5073174;28;20081;-65
2024/01/10 06:24:42;;;;;;;24.00;7.80;;;-9.60;99.90;;;;;;5077663;28;20494;-65
2024/01/10 06:27:09;;;;;;;27.33;8.27;;;-9.40;99.90;;;;;;5078963;28;20020;-65
2024/01/10 06:29:35;;;;;;;19.13;7.28;;;-9.30;99.90;;;;;;5075759;28;20020;-65
2024/01/10 06:32:01;;;;;;;19.63;6.78;;;-9.20;99.90;;;;;;5074093;28;20031;-66
2024/01/10 06:34:27;;;;;;;20.65;7.28;;;-9.20;99.90;;;;;;5074658;28;20020;-65
2024/01/10 06:36:53;;;;;;;31.17;7.47;;;-9.20;99.90;;;;;;5081705;28;20036;-65
2024/01/10 06:39:19;;;;;;;26.08;7.72;;;-9.20;99.90;;;;;;5075419;28;20025;-65
2024/01/10 06:41:47;;;;;;;20.23;6.03;;;-9.30;99.90;;;;;;5071508;28;20032;-66
2024/01/10 06:44:13;;;;;;;21.58;8.05;;;-9.40;99.90;;;;;;5079629;28;20467;-65
2024/01/10 06:46:38;;;;;;;21.60;8.18;;;-9.30;99.90;;;;;;5079776;28;20101;-66
2024/01/10 06:49:04;;;;;;;20.90;8.20;;;-9.40;99.90;;;;;;5085045;28;20455;-66
2024/01/10 06:51:30;;;;;;;19.25;7.10;;;-9.50;99.90;;;;;;5075410;28;20487;-66
2024/01/10 06:54:02;;;;;;;18.92;7.63;;;-9.50;99.90;;;;;;5088613;28;20682;-66
2024/01/10 06:56:28;;;;;;;20.05;7.25;;;-9.50;99.90;;;;;;5078126;28;20411;-66
2024/01/10 06:58:54;;;;;;;25.33;8.10;;;-9.50;99.90;;;;;;5073105;28;20029;-66
2024/01/10 07:01:21;;;;;;;18.90;5.78;;;-9.50;99.90;;;;;;5086308;28;20044;-66
2024/01/10 07:03:47;;;;;;;22.60;7.50;;;-9.40;99.90;;;;;;5080812;28;20031;-66
2024/01/10 07:06:16;;;;;;;20.08;7.15;;;-9.30;99.90;;;;;;5081017;28;20040;-66
2024/01/10 07:08:42;;;;;;;25.70;9.95;;;-9.20;99.90;;;;;;5075779;28;20033;-66
2024/01/10 07:11:08;;;;;;;20.35;6.22;;;-9.10;99.90;;;;;;5078892;28;20032;-67
2024/01/10 07:13:34;;;;;;;21.60;7.78;;;-9.10;99.90;;;;;;5071058;28;20086;-66
2024/01/10 07:16:01;;;;;;;23.17;8.60;;;-9.10;99.90;;;;;;5074873;28;20415;-65
2024/01/10 07:18:28;;;;;;;35.28;9.63;;;-9.10;99.90;;;;;;5089981;28;20446;-65
2024/01/10 07:20:54;;;;;;;26.75;9.52;;;-9.00;99.90;;;;;;5081987;28;20645;-65
2024/01/10 07:23:20;;;;;;;27.42;10.13;;;-9.10;99.90;;;;;;5080719;28;20020;-65
2024/01/10 07:25:45;;;;;;;28.50;10.25;;;-9.10;99.90;;;;;;5081167;28;20024;-66
2024/01/10 07:28:11;;;;;;;27.13;8.68;;;-9.10;99.90;;;;;;5079860;28;20025;-65
2024/01/10 07:30:37;;;;;;;29.23;9.48;;;-9.10;99.90;;;;;;5080309;28;20420;-65
2024/01/10 07:33:02;;;;;;;22.52;8.18;;;-9.10;99.90;;;;;;5076529;28;20035;-66
2024/01/10 07:35:29;;;;;;;24.80;7.50;;;-9.20;99.90;;;;;;5079695;28;20463;-66
2024/01/10 07:37:55;;;;;;;22.60;9.38;;;-9.30;99.90;;;;;;5079217;28;20023;-66
2024/01/10 07:40:20;;;;;;;25.55;9.45;;;-9.30;99.90;;;;;;5070912;28;20021;-65
2024/01/10 07:42:46;;;;;;;30.88;9.13;;;-9.30;99.90;;;;;;5076385;28;20380;-64
2024/01/10 07:45:12;;;;;;;38.88;13.00;;;-9.40;99.90;;;;;;5071431;28;20021;-65
2024/01/10 07:47:38;;;;;;;26.15;9.73;;;-9.50;99.90;;;;;;5065981;28;20021;-66
2024/01/10 07:50:07;;;;;;;28.75;11.95;;;-9.50;99.90;;;;;;5077773;28;20438;-63
2024/01/10 07:52:34;;;;;;;31.50;12.15;;;-9.40;99.90;;;;;;5063618;28;20020;-64
2024/01/10 07:55:00;;;;;;;31.73;11.93;;;-9.10;99.90;;;;;;5079885;28;20020;-63
2024/01/10 07:57:26;;;;;;;30.42;11.40;;;-9.20;99.90;;;;;;5077188;28;20037;-66
2024/01/10 07:59:52;;;;;;;38.35;13.25;;;-8.90;99.90;;;;;;5080717;28;20032;-64
2024/01/10 08:02:18;;;;;;;29.23;12.02;;;-8.80;99.90;;;;;;5064632;28;20485;-64
2024/01/10 08:04:44;;;;;;;26.05;9.85;;;-8.80;99.90;;;;;;5072489;28;20051;-63
2024/01/10 08:07:09;;;;;;;44.20;13.13;;;-8.90;99.90;;;;;;5076094;28;20047;-64
2024/01/10 08:09:36;;;;;;;33.63;10.77;;;-8.80;99.90;;;;;;5070140;28;20028;-64
2024/01/10 08:12:03;;;;;;;29.65;10.63;;;-8.70;99.90;;;;;;5077017;28;20024;-64
2024/01/10 08:14:28;;;;;;;25.63;9.23;;;-8.60;99.90;;;;;;5071996;28;20044;-65
2024/01/10 08:16:57;;;;;;;26.92;9.77;;;-8.50;99.90;;;;;;5071513;28;20016;-64
2024/01/10 08:19:24;;;;;;;29.45;10.15;;;-8.50;99.90;;;;;;5071458;28;20410;-65
2024/01/10 08:21:50;;;;;;;36.53;9.73;;;-8.40;99.90;;;;;;5072884;28;20029;-65
2024/01/10 08:24:15;;;;;;;31.25;9.93;;;-8.30;99.90;;;;;;5078016;28;20028;-64
2024/01/10 08:26:41;;;;;;;30.60;10.50;;;-8.30;99.90;;;;;;5078516;28;20126;-63
2024/01/10 08:29:07;;;;;;;30.30;10.40;;;-8.20;99.90;;;;;;5085635;28;20506;-64
2024/01/10 08:31:32;;;;;;;27.90;11.05;;;-8.10;99.90;;;;;;5070918;28;20188;-64
2024/01/10 08:33:58;;;;;;;25.63;9.45;;;-8.10;99.90;;;;;;5077515;28;20387;-65
2024/01/10 08:36:27;;;;;;;30.05;11.23;;;-8.00;99.90;;;;;;5077018;28;20040;-64
2024/01/10 08:38:53;;;;;;;28.83;10.00;;;-7.90;99.90;;;;;;5063378;28;20115;-64
2024/01/10 08:41:19;;;;;;;31.17;11.10;;;-7.90;99.90;;;;;;5085383;28;20544;-64
2024/01/10 08:43:46;;;;;;;32.55;12.25;;;-7.80;99.90;;;;;;5079429;28;20029;-64
2024/01/10 08:46:12;;;;;;;30.50;11.18;;;-7.70;99.90;;;;;;5079207;28;20035;-64
2024/01/10 08:48:37;;;;;;;33.35;11.75;;;-7.60;99.90;;;;;;5077939;28;20387;-64
2024/01/10 08:51:03;;;;;;;34.65;12.30;;;-7.50;99.90;;;;;;5071212;28;20037;-64
2024/01/10 08:53:29;;;;;;;30.70;11.25;;;-7.40;99.90;;;;;;5078067;28;20139;-64
2024/01/10 08:55:54;;;;;;;32.83;10.32;;;-7.30;99.90;;;;;;5071641;28;20100;-65
2024/01/10 08:58:20;;;;;;;32.08;11.52;;;-7.10;99.90;;;;;;5076667;28;20039;-64
2024/01/10 09:00:46;;;;;;;25.83;10.32;;;-7.00;99.90;;;;;;5080698;28;20024;-64
2024/01/10 09:03:12;;;;;;;33.97;10.40;;;-6.70;99.90;;;;;;5069025;28;20041;-64
2024/01/10 09:05:38;;;;;;;34.35;11.43;;;-6.20;99.90;;;;;;5073475;28;20028;-64
2024/01/10 09:08:04;;;;;;;29.27;9.80;;;-5.60;99.90;;;;;;5075845;28;20051;-64
2024/01/10 09:10:29;;;;;;;25.85;8.55;;;-4.90;99.90;;;;;;5071854;28;20029;-64
2024/01/10 09:12:55;;;;;;;32.70;11.95;;;-4.20;99.90;;;;;;5067687;28;20032;-64
2024/01/10 09:15:21;;;;;;;21.75;8.48;;;-3.80;99.90;;;;;;5078246;28;20081;-64
2024/01/10 09:17:46;;;;;;;31.40;11.32;;;-3.50;99.90;;;;;;5076357;28;20025;-64
2024/01/10 09:20:13;;;;;;;32.33;10.60;;;-3.20;99.90;;;;;;5078170;28;20131;-65
2024/01/10 09:22:39;;;;;;;29.52;11.40;;;-3.00;99.90;;;;;;5073009;28;20076;-65
2024/01/10 09:25:05;;;;;;;37.70;13.98;;;-2.70;99.90;;;;;;5073193;28;20028;-66
2024/01/10 09:27:33;;;;;;;27.08;10.95;;;-2.30;98.10;;;;;;5074039;28;20051;-65
2024/01/10 09:30:01;;;;;;;26.23;10.32;;;-2.10;97.60;;;;;;5073422;28;20020;-65
2024/01/10 09:32:27;;;;;;;29.58;12.13;;;-1.80;95.90;;;;;;5082216;28;20364;-65
2024/01/10 09:34:53;;;;;;;33.80;11.70;;;-1.80;93.90;;;;;;5076358;28;20125;-65
2024/01/10 09:37:19;;;;;;;26.50;10.18;;;-1.70;95.40;;;;;;5079196;28;20023;-66
2024/01/10 09:39:45;;;;;;;39.95;14.30;;;-1.50;93.20;;;;;;5079374;28;20391;-65
2024/01/10 09:42:11;;;;;;;35.10;12.82;;;-1.60;91.40;;;;;;5079230;28;20032;-65
2024/01/10 09:44:36;;;;;;;31.73;14.05;;;-1.80;92.90;;;;;;5075141;28;20063;-65
2024/01/10 09:47:02;;;;;;;34.70;11.90;;;-1.80;93.40;;;;;;5079879;28;20036;-65
2024/01/10 09:49:29;;;;;;;38.10;12.55;;;-1.70;93.70;;;;;;5077144;28;20170;-66
2024/01/10 09:52:01;;;;;;;30.38;11.13;;;-0.90;91.60;;;;;;5071633;28;20025;-66
2024/01/10 09:54:29;;;;;;;35.95;11.90;;;-0.60;92.90;;;;;;5078513;28;20032;-65
2024/01/10 09:56:56;;;;;;;33.28;12.43;;;-0.60;93.00;;;;;;5080030;28;20044;-65
2024/01/10 09:59:21;;;;;;;32.30;12.23;;;0.00;90.50;;;;;;5072456;28;20086;-65
2024/01/10 10:01:47;;;;;;;32.75;11.70;;;0.30;86.60;;;;;;5074439;28;20126;-66
2024/01/10 10:04:15;;;;;;;24.23;9.52;;;0.50;80.60;;;;;;5072318;28;20510;-65
2024/01/10 10:06:40;;;;;;;32.13;12.63;;;0.30;79.30;;;;;;5081659;28;20145;-65
2024/01/10 10:09:08;;;;;;;33.40;13.38;;;0.40;80.90;;;;;;5080805;28;20397;-65
2024/01/10 10:11:34;;;;;;;33.22;13.13;;;0.30;80.60;;;;;;5075480;28;20564;-65
2024/01/10 10:14:14;;;;;;;30.70;11.82;;;0.50;81.80;;;;;;5073597;28;20320;-65
2024/01/10 10:16:41;;;;;;;29.70;12.43;;;0.40;77.90;;;;;;5077666;28;20074;-65
2024/01/10 10:19:06;;;;;;;28.27;11.50;;;0.30;83.40;;;;;;5074847;28;20029;-66
2024/01/10 10:21:33;;;;;;;35.25;12.23;;;0.60;80.20;;;;;;5074780;28;20024;-65
2024/01/10 10:24:01;;;;;;;33.45;14.30;;;1.20;73.10;;;;;;5079654;28;20376;-65
2024/01/10 10:26:29;;;;;;;34.03;14.55;;;1.10;73.00;;;;;;5070215;28;20504;-65
2024/01/10 10:28:55;;;;;;;31.30;11.80;;;0.70;73.60;;;;;;5075740;28;20211;-65
2024/01/10 10:31:21;;;;;;;34.10;11.80;;;0.40;80.70;;;;;;5075357;28;20017;-65
2024/01/10 10:33:50;;;;;;;33.50;13.18;;;0.40;78.50;;;;;;5080649;28;20029;-66
2024/01/10 10:36:16;;;;;;;33.15;12.27;;;0.40;81.60;;;;;;5071000;28;20098;-65
2024/01/10 10:38:41;;;;;;;31.23;12.65;;;0.70;80.30;;;;;;5081189;28;20069;-66
2024/01/10 10:41:10;;;;;;;36.65;15.40;;;1.20;79.10;;;;;;5074865;28;20029;-64
2024/01/10 10:43:37;;;;;;;38.97;14.43;;;;;;;;;;5081430;28;20062;-64
2024/01/10 10:46:04;;;;;;;37.00;14.48;;;2.10;72.80;;;;;;5078447;28;20032;-63
2024/01/10 10:48:34;;;;;;;41.55;16.02;;;2.80;70.20;;;;;;5076496;28;20063;-65
2024/01/10 10:51:09;;;;;;;45.72;16.50;;;3.00;67.60;;;;;;5074194;28;20131;-66
2024/01/10 10:53:36;;;;;;;46.80;17.50;;;3.00;66.50;;;;;;5078890;28;20039;-65
2024/01/10 10:56:04;;;;;;;41.55;15.60;;;2.80;68.50;;;;;;5076297;28;20067;-63
2024/01/10 10:58:38;;;;;;;44.70;16.40;;;3.10;66.80;;;;;;5070265;28;20017;-65
2024/01/10 11:01:08;;;;;;;40.42;17.00;;;3.60;65.50;;;;;;5077579;28;20134;-63
2024/01/10 11:03:39;;;;;;;39.05;14.20;;;3.70;63.00;;;;;;5076936;28;20025;-65
2024/01/10 11:06:06;;;;;;;31.08;13.35;;;2.80;64.40;;;;;;5076057;28;20040;-65
2024/01/10 11:08:43;;;;;;;31.17;12.43;;;2.50;68.00;;;;;;5076369;28;20479;-66
2024/01/10 11:11:30;;;;;;;35.67;14.00;;;3.20;64.90;;;;;;5078406;28;20035;-64
2024/01/10 11:14:14;;;;;;;29.30;12.30;;;3.80;63.70;;;;;;5077068;28;20093;-63
2024/01/10 11:16:58;;;;;;;31.80;13.50;;;3.90;63.60;;;;;;5073750;28;20028;-64
2024/01/10 11:19:51;;;;;;;34.35;13.52;;;4.40;61.20;;;;;;5081749;28;20385;-64
2024/01/10 11:22:37;;;;;;;52.55;19.98;;;4.60;62.30;;;;;;5066546;28;20490;-64
2024/01/10 11:25:03;;;;;;;41.10;15.57;;;5.40;59.20;;;;;;5070460;28;20544;-63
2024/01/10 11:27:30;;;;;;;33.92;13.13;;;5.90;58.30;;;;;;5069278;28;20082;-63
2024/01/10 11:29:56;;;;;;;44.95;16.23;;;6.10;55.80;;;;;;5074491;28;20032;-63
2024/01/10 11:32:25;;;;;;;38.28;15.35;;;6.20;55.60;;;;;;5067690;28;20074;-63
2024/01/10 11:34:55;;;;;;;35.67;15.55;;;5.90;56.10;;;;;;5076111;28;20116;-66
2024/01/10 11:37:21;;;;;;;54.67;20.35;;;5.40;53.80;;;;;;5074434;28;20025;-64
2024/01/10 11:39:47;;;;;;;34.60;14.52;;;5.00;56.80;;;;;;5073510;28;20032;-63
2024/01/10 11:42:22;;;;;;;34.45;14.50;;;5.00;56.80;;;;;;5070680;28;20025;-63
2024/01/10 11:44:50;;;;;;;33.80;14.48;;;4.90;55.80;;;;;;5072345;28;20040;-65
2024/01/10 11:47:15;;;;;;;30.70;13.35;;;4.70;54.80;;;;;;5073981;28;20059;-66
2024/01/10 11:49:57;;;;;;;42.08;16.25;;;4.10;56.10;;;;;;5072353;28;20024;-66
2024/01/10 11:52:24;;;;;;;40.30;14.90;;;3.90;57.50;;;;;;5075222;28;20029;-63
2024/01/10 11:54:50;;;;;;;34.92;13.85;;;4.20;59.10;;;;;;5070351;28;20085;-63
2024/01/10 11:57:21;;;;;;;35.35;14.98;;;4.80;58.10;;;;;;5072434;28;20081;-65
2024/01/10 11:59:50;;;;;;;40.05;15.75;;;5.00;55.00;;;;;;5068019;28;20028;-66
2024/01/10 12:02:17;;;;;;;29.25;13.70;;;4.80;56.60;;;;;;5067941;28;20056;-66
2024/01/10 12:04:42;;;;;;;34.30;15.02;;;4.70;55.20;;;;;;5069823;28;20491;-66
2024/01/10 12:07:08;;;;;;;36.55;15.40;;;4.60;55.90;;;;;;5072000;28;20107;-65
2024/01/10 12:09:36;;;;;;;38.88;15.88;;;5.50;56.70;;;;;;5067344;28;20059;-66
2024/01/10 12:12:03;;;;;;;38.22;15.18;;;4.00;56.50;;;;;;5071443;28;20028;-66
2024/01/10 12:14:28;;;;;;;38.42;16.17;;;4.00;58.30;;;;;;5077055;28;20081;-64
2024/01/10 12:16:54;;;;;;;39.00;16.35;;;4.30;57.30;;;;;;5074629;28;20104;-64
2024/01/10 12:19:20;;;;;;;34.50;14.32;;;5.00;57.10;;;;;;5073543;28;20082;-64
2024/01/10 12:21:47;;;;;;;32.58;14.23;;;5.10;54.40;;;;;;5073300;28;20749;-66
2024/01/10 12:24:13;;;;;;;31.92;13.40;;;4.70;54.50;;;;;;5078189;28;20032;-66
2024/01/10 12:26:44;;;;;;;35.78;13.52;;;4.70;57.60;;;;;;5065824;28;20025;-66
2024/01/10 12:29:11;;;;;;;31.83;14.43;;;4.80;56.80;;;;;;5068661;28;20047;-67
2024/01/10 12:31:37;;;;;;;25.17;11.32;;;4.90;55.30;;;;;;5071821;28;20425;-67